Saint Johnsville, NY

1:00 PM EDT on July 25, 2016 (GMT -0400)
Veit Farms | | Change Station

Elev 735 ft 42.96 °N, 74.68 °W | Updated 6 minutes ago

Rain
Rain
72.3 °F
Feels Like 70 °F
N
2.0
Wind Variable Wind from WNW
Gusts 4.0 mph

Today
High -- | Low -- °F
--% Chance of Precip.
Yesterday
High -- | Low -- °F
Precip. -- in
Pressure 29.89 in
Visibility 10.0 miles
Clouds Scattered Clouds 800 ft
Mostly Cloudy 1100 ft
Mostly Cloudy 3800 ft
Heat Index 70 °F
Dew Point 69 °F
Humidity 88%
Rainfall 0.11 in
Snow Depth Not available.
5:42 AM 8:26 PM
Waning Gibbous, 64% visible
METAR KRME 251653Z 00000KT 10SM SCT008 BKN011 BKN038 23/21 A2990 RMK AO2 RAE42 SLP121 P0001 T02280211
Pressure 29.89 in
Visibility 10.0 miles
Clouds Scattered Clouds 800 ft
Mostly Cloudy 1100 ft
Mostly Cloudy 3800 ft
Heat Index 70 °F
Dew Point 69 °F
Humidity 88%
Rainfall 0.11 in
Snow Depth Not available.
5:42 AM 8:26 PM
Waning Gibbous, 64% visible
METAR KRME 251653Z 00000KT 10SM SCT008 BKN011 BKN038 23/21 A2990 RMK AO2 RAE42 SLP121 P0001 T02280211
Record highs are possible for parts of the Northeast Monday and Tuesday, as parts of the central U.S. take a little breather from the worst of summer's dog day heat.

Expansive high pressure in the upper atmosphere will focus on parts of the East and West this week, sending heat indices well into the triple digits from the Mid-Atlantic states into the South.

10-Day Weather Forecast

Almanac

Astronomy

Jul. 25, 2016 Rise Set
Actual Time
Civil Twilight
Nautical Twilight
Astronomical Twilight
Moon
Length of Visible Light
Length of Day
Tomorrow will be .
, % of the Moon is Illuminated

Today's Extremes

State Highs State Lows

Community

WunderPhotos

Upload Photos

1,927,349 photos uploaded!

WunderBlog® & News

Nearby

Air Quality

  Air Quality AQ Index Pollutant
Not available.

Snow Depth

Station Depth Elevation

Earthquake Activity

City Distance Mag. Time & Date
Minimum magnitude displayed is 2.5.

Coastal Water Temperatures

Place Temperature

Stations

Nearby Weather Stations

Station Location Temp. Windchill Dew Point Humidity Wind Precip. Elev Updated Type
                   

Watches & Warnings

There are currently no watches in effect.